sensor_id;sensor_type;location;lat;lon;timestamp;temperature;humidity
19017;DHT22;9641;51.494;6.670;2023-10-19T00:00:48;12.20;99.90
19017;DHT22;9641;51.494;6.670;2023-10-19T00:03:16;12.30;99.90
19017;DHT22;9641;51.494;6.670;2023-10-19T00:05:43;12.30;99.90
19017;DHT22;9641;51.494;6.670;2023-10-19T00:08:11;12.30;99.90
19017;DHT22;9641;51.494;6.670;2023-10-19T00:10:42;12.30;99.90
19017;DHT22;9641;51.494;6.670;2023-10-19T00:13:11;12.30;99.90
19017;DHT22;9641;51.494;6.670;2023-10-19T00:15:38;12.30;99.90
19017;DHT22;9641;51.494;6.670;2023-10-19T00:18:12;12.30;99.90
19017;DHT22;9641;51.494;6.670;2023-10-19T00:20:50;12.30;99.90
19017;DHT22;9641;51.494;6.670;2023-10-19T00:23:25;12.30;99.90
19017;DHT22;9641;51.494;6.670;2023-10-19T00:25:55;12.30;99.90
19017;DHT22;9641;51.494;6.670;2023-10-19T00:28:23;12.40;99.90
19017;DHT22;9641;51.494;6.670;2023-10-19T00:30:51;12.40;99.90
19017;DHT22;9641;51.494;6.670;2023-10-19T00:33:19;12.40;99.90
19017;DHT22;9641;51.494;6.670;2023-10-19T00:35:47;12.40;99.90
19017;DHT22;9641;51.494;6.670;2023-10-19T00:38:23;12.40;99.90
19017;DHT22;9641;51.494;6.670;2023-10-19T00:41:17;12.40;99.90
19017;DHT22;9641;51.494;6.670;2023-10-19T00:43:49;12.40;99.90
19017;DHT22;9641;51.494;6.670;2023-10-19T00:46:23;12.40;99.90
19017;DHT22;9641;51.494;6.670;2023-10-19T00:48:59;12.50;99.90
19017;DHT22;9641;51.494;6.670;2023-10-19T00:51:27;12.50;99.90
19017;DHT22;9641;51.494;6.670;2023-10-19T00:54:09;12.50;99.90
19017;DHT22;9641;51.494;6.670;2023-10-19T00:56:40;12.50;99.90
19017;DHT22;9641;51.494;6.670;2023-10-19T00:59:13;12.50;99.90
19017;DHT22;9641;51.494;6.670;2023-10-19T01:01:45;12.50;99.90
19017;DHT22;9641;51.494;6.670;2023-10-19T01:04:14;12.50;99.90
19017;DHT22;9641;51.494;6.670;2023-10-19T01:06:47;12.50;99.90
19017;DHT22;9641;51.494;6.670;2023-10-19T01:09:26;12.50;99.90
19017;DHT22;9641;51.494;6.670;2023-10-19T01:11:54;12.50;99.90
19017;DHT22;9641;51.494;6.670;2023-10-19T01:14:28;12.50;99.90
19017;DHT22;9641;51.494;6.670;2023-10-19T01:16:59;12.50;99.90
19017;DHT22;9641;51.494;6.670;2023-10-19T01:19:28;12.60;99.90
19017;DHT22;9641;51.494;6.670;2023-10-19T01:21:55;12.60;99.90
19017;DHT22;9641;51.494;6.670;2023-10-19T01:24:30;12.60;99.90
19017;DHT22;9641;51.494;6.670;2023-10-19T01:27:06;12.60;99.90
19017;DHT22;9641;51.494;6.670;2023-10-19T01:29:34;12.60;99.90
19017;DHT22;9641;51.494;6.670;2023-10-19T01:32:03;12.60;99.90
19017;DHT22;9641;51.494;6.670;2023-10-19T01:34:33;12.60;99.90
19017;DHT22;9641;51.494;6.670;2023-10-19T01:37:01;12.70;99.90
19017;DHT22;9641;51.494;6.670;2023-10-19T01:39:32;12.70;99.90
19017;DHT22;9641;51.494;6.670;2023-10-19T01:42:01;12.70;99.90
19017;DHT22;9641;51.494;6.670;2023-10-19T01:44:30;12.70;99.90
19017;DHT22;9641;51.494;6.670;2023-10-19T01:46:57;12.70;99.90
19017;DHT22;9641;51.494;6.670;2023-10-19T01:49:26;12.70;99.90
19017;DHT22;9641;51.494;6.670;2023-10-19T01:51:52;12.70;99.90
19017;DHT22;9641;51.494;6.670;2023-10-19T01:54:19;12.70;99.90
19017;DHT22;9641;51.494;6.670;2023-10-19T01:56:50;12.80;99.90
19017;DHT22;9641;51.494;6.670;2023-10-19T01:59:20;12.80;99.90
19017;DHT22;9641;51.494;6.670;2023-10-19T02:01:48;12.80;99.90
19017;DHT22;9641;51.494;6.670;2023-10-19T02:04:14;12.80;99.90
19017;DHT22;9641;51.494;6.670;2023-10-19T02:06:41;12.80;99.90
19017;DHT22;9641;51.494;6.670;2023-10-19T02:09:08;12.80;99.90
19017;DHT22;9641;51.494;6.670;2023-10-19T02:11:43;12.80;99.90
19017;DHT22;9641;51.494;6.670;2023-10-19T02:14:15;12.80;99.90
19017;DHT22;9641;51.494;6.670;2023-10-19T02:16:42;12.80;99.90
19017;DHT22;9641;51.494;6.670;2023-10-19T02:19:09;12.90;99.90
19017;DHT22;9641;51.494;6.670;2023-10-19T02:21:35;12.90;99.90
19017;DHT22;9641;51.494;6.670;2023-10-19T02:24:06;12.90;99.90
19017;DHT22;9641;51.494;6.670;2023-10-19T02:26:34;12.90;99.90
19017;DHT22;9641;51.494;6.670;2023-10-19T02:29:00;12.90;99.90
19017;DHT22;9641;51.494;6.670;2023-10-19T02:31:30;13.00;99.90
19017;DHT22;9641;51.494;6.670;2023-10-19T02:33:56;13.00;99.90
19017;DHT22;9641;51.494;6.670;2023-10-19T02:36:26;13.00;99.90
19017;DHT22;9641;51.494;6.670;2023-10-19T02:38:54;13.00;99.90
19017;DHT22;9641;51.494;6.670;2023-10-19T02:41:24;13.00;99.90
19017;DHT22;9641;51.494;6.670;2023-10-19T02:43:52;13.00;99.90
19017;DHT22;9641;51.494;6.670;2023-10-19T02:46:27;13.00;99.90
19017;DHT22;9641;51.494;6.670;2023-10-19T02:48:56;13.00;99.90
19017;DHT22;9641;51.494;6.670;2023-10-19T02:51:22;13.00;99.90
19017;DHT22;9641;51.494;6.670;2023-10-19T02:53:49;13.10;99.90
19017;DHT22;9641;51.494;6.670;2023-10-19T02:56:16;13.10;99.90
19017;DHT22;9641;51.494;6.670;2023-10-19T02:58:45;13.10;99.90
19017;DHT22;9641;51.494;6.670;2023-10-19T03:01:15;13.10;99.90
19017;DHT22;9641;51.494;6.670;2023-10-19T03:03:48;13.10;99.90
19017;DHT22;9641;51.494;6.670;2023-10-19T03:06:19;13.20;99.90
19017;DHT22;9641;51.494;6.670;2023-10-19T03:08:47;13.10;99.90
19017;DHT22;9641;51.494;6.670;2023-10-19T03:11:13;13.20;99.90
19017;DHT22;9641;51.494;6.670;2023-10-19T03:13:41;13.10;99.90
19017;DHT22;9641;51.494;6.670;2023-10-19T03:16:09;13.20;99.90
19017;DHT22;9641;51.494;6.670;2023-10-19T03:18:36;13.20;99.90
19017;DHT22;9641;51.494;6.670;2023-10-19T03:21:02;13.20;99.90
19017;DHT22;9641;51.494;6.670;2023-10-19T03:23:30;13.20;99.90
19017;DHT22;9641;51.494;6.670;2023-10-19T03:25:59;13.20;99.90
19017;DHT22;9641;51.494;6.670;2023-10-19T03:28:48;13.20;99.90
19017;DHT22;9641;51.494;6.670;2023-10-19T03:31:14;13.20;99.90
19017;DHT22;9641;51.494;6.670;2023-10-19T03:33:44;13.20;99.90
19017;DHT22;9641;51.494;6.670;2023-10-19T03:36:14;13.30;99.90
19017;DHT22;9641;51.494;6.670;2023-10-19T03:38:42;13.30;99.90
19017;DHT22;9641;51.494;6.670;2023-10-19T03:41:10;13.30;99.90
19017;DHT22;9641;51.494;6.670;2023-10-19T03:43:38;13.30;99.90
19017;DHT22;9641;51.494;6.670;2023-10-19T03:46:07;13.30;99.90
19017;DHT22;9641;51.494;6.670;2023-10-19T03:48:47;13.30;99.90
19017;DHT22;9641;51.494;6.670;2023-10-19T03:51:15;13.30;99.90
19017;DHT22;9641;51.494;6.670;2023-10-19T03:53:44;13.30;99.90
19017;DHT22;9641;51.494;6.670;2023-10-19T03:56:19;13.30;99.90
19017;DHT22;9641;51.494;6.670;2023-10-19T03:58:47;13.30;99.90
19017;DHT22;9641;51.494;6.670;2023-10-19T04:01:16;13.30;99.90
19017;DHT22;9641;51.494;6.670;2023-10-19T04:03:46;13.30;99.90
19017;DHT22;9641;51.494;6.670;2023-10-19T04:06:13;13.30;99.90
19017;DHT22;9641;51.494;6.670;2023-10-19T04:08:40;13.30;99.90
19017;DHT22;9641;51.494;6.670;2023-10-19T04:11:12;13.30;99.90
19017;DHT22;9641;51.494;6.670;2023-10-19T04:13:50;13.40;99.90
19017;DHT22;9641;51.494;6.670;2023-10-19T04:16:19;13.30;99.90
19017;DHT22;9641;51.494;6.670;2023-10-19T04:18:47;13.40;99.90
19017;DHT22;9641;51.494;6.670;2023-10-19T04:21:15;13.40;99.90
19017;DHT22;9641;51.494;6.670;2023-10-19T04:23:42;13.40;99.90
19017;DHT22;9641;51.494;6.670;2023-10-19T04:26:09;13.40;99.90
19017;DHT22;9641;51.494;6.670;2023-10-19T04:28:41;13.40;99.90
19017;DHT22;9641;51.494;6.670;2023-10-19T04:31:15;13.40;99.90
19017;DHT22;9641;51.494;6.670;2023-10-19T04:33:43;13.40;99.90
19017;DHT22;9641;51.494;6.670;2023-10-19T04:36:16;13.40;99.90
19017;DHT22;9641;51.494;6.670;2023-10-19T04:38:46;13.40;99.90
19017;DHT22;9641;51.494;6.670;2023-10-19T04:41:13;13.40;99.90
19017;DHT22;9641;51.494;6.670;2023-10-19T04:43:42;13.40;99.90
19017;DHT22;9641;51.494;6.670;2023-10-19T04:46:15;13.50;99.90
19017;DHT22;9641;51.494;6.670;2023-10-19T04:48:44;13.50;99.90
19017;DHT22;9641;51.494;6.670;2023-10-19T04:51:11;13.50;99.90
19017;DHT22;9641;51.494;6.670;2023-10-19T04:53:38;13.50;99.90
19017;DHT22;9641;51.494;6.670;2023-10-19T04:56:08;13.50;99.90
19017;DHT22;9641;51.494;6.670;2023-10-19T04:58:35;13.50;99.90
19017;DHT22;9641;51.494;6.670;2023-10-19T05:01:04;13.40;99.90
19017;DHT22;9641;51.494;6.670;2023-10-19T05:03:49;13.50;99.90
19017;DHT22;9641;51.494;6.670;2023-10-19T05:06:16;13.50;99.90
19017;DHT22;9641;51.494;6.670;2023-10-19T05:08:43;13.50;99.90
19017;DHT22;9641;51.494;6.670;2023-10-19T05:11:37;13.50;99.90
19017;DHT22;9641;51.494;6.670;2023-10-19T05:14:31;13.50;99.90
19017;DHT22;9641;51.494;6.670;2023-10-19T05:16:59;13.50;99.90
19017;DHT22;9641;51.494;6.670;2023-10-19T05:19:26;13.50;99.90
19017;DHT22;9641;51.494;6.670;2023-10-19T05:22:09;13.40;99.90
19017;DHT22;9641;51.494;6.670;2023-10-19T05:24:38;13.50;99.90
19017;DHT22;9641;51.494;6.670;2023-10-19T05:27:07;13.50;99.90
19017;DHT22;9641;51.494;6.670;2023-10-19T05:29:35;13.50;99.90
19017;DHT22;9641;51.494;6.670;2023-10-19T05:32:04;13.40;99.90
19017;DHT22;9641;51.494;6.670;2023-10-19T05:34:31;13.50;99.90
19017;DHT22;9641;51.494;6.670;2023-10-19T05:37:00;13.40;99.90
19017;DHT22;9641;51.494;6.670;2023-10-19T05:39:30;13.50;99.90
19017;DHT22;9641;51.494;6.670;2023-10-19T05:41:59;13.50;99.90
19017;DHT22;9641;51.494;6.670;2023-10-19T05:44:27;13.50;99.90
19017;DHT22;9641;51.494;6.670;2023-10-19T05:46:53;13.50;99.90
19017;DHT22;9641;51.494;6.670;2023-10-19T05:49:23;13.40;99.90
19017;DHT22;9641;51.494;6.670;2023-10-19T05:51:50;13.40;99.90
19017;DHT22;9641;51.494;6.670;2023-10-19T05:54:17;13.40;99.90
19017;DHT22;9641;51.494;6.670;2023-10-19T05:56:44;13.40;99.90
19017;DHT22;9641;51.494;6.670;2023-10-19T05:59:11;13.40;99.90
19017;DHT22;9641;51.494;6.670;2023-10-19T06:01:38;13.40;99.90
19017;DHT22;9641;51.494;6.670;2023-10-19T06:04:06;13.40;99.90
19017;DHT22;9641;51.494;6.670;2023-10-19T06:06:34;13.40;99.90
19017;DHT22;9641;51.494;6.670;2023-10-19T06:09:02;13.40;99.90
19017;DHT22;9641;51.494;6.670;2023-10-19T06:11:30;13.40;99.90
19017;DHT22;9641;51.494;6.670;2023-10-19T06:13:58;13.40;99.90
19017;DHT22;9641;51.494;6.670;2023-10-19T06:16:25;13.40;99.90
19017;DHT22;9641;51.494;6.670;2023-10-19T06:18:54;13.40;99.90
19017;DHT22;9641;51.494;6.670;2023-10-19T06:21:20;13.40;99.90
19017;DHT22;9641;51.494;6.670;2023-10-19T06:23:51;13.40;99.90
19017;DHT22;9641;51.494;6.670;2023-10-19T06:26:19;13.40;99.90
19017;DHT22;9641;51.494;6.670;2023-10-19T06:28:46;13.40;99.90
19017;DHT22;9641;51.494;6.670;2023-10-19T06:31:12;13.40;99.90
19017;DHT22;9641;51.494;6.670;2023-10-19T06:33:40;13.40;99.90
19017;DHT22;9641;51.494;6.670;2023-10-19T06:36:08;13.40;99.90
19017;DHT22;9641;51.494;6.670;2023-10-19T06:38:35;13.40;99.90
19017;DHT22;9641;51.494;6.670;2023-10-19T06:41:11;13.40;99.90
19017;DHT22;9641;51.494;6.670;2023-10-19T06:43:38;13.40;99.90
19017;DHT22;9641;51.494;6.670;2023-10-19T06:46:06;13.40;99.90
19017;DHT22;9641;51.494;6.670;2023-10-19T06:48:33;13.40;99.90
19017;DHT22;9641;51.494;6.670;2023-10-19T06:51:01;13.40;99.90
19017;DHT22;9641;51.494;6.670;2023-10-19T06:53:28;13.50;99.90
19017;DHT22;9641;51.494;6.670;2023-10-19T06:55:57;13.50;99.90
19017;DHT22;9641;51.494;6.670;2023-10-19T06:58:26;13.50;99.90
19017;DHT22;9641;51.494;6.670;2023-10-19T07:00:53;13.50;99.90
19017;DHT22;9641;51.494;6.670;2023-10-19T07:03:26;13.60;99.90
19017;DHT22;9641;51.494;6.670;2023-10-19T07:05:54;13.60;99.90
19017;DHT22;9641;51.494;6.670;2023-10-19T07:08:22;13.60;99.90
19017;DHT22;9641;51.494;6.670;2023-10-19T07:10:49;13.60;99.90
19017;DHT22;9641;51.494;6.670;2023-10-19T07:13:16;13.60;99.90
19017;DHT22;9641;51.494;6.670;2023-10-19T07:15:46;13.60;99.90
19017;DHT22;9641;51.494;6.670;2023-10-19T07:18:14;13.70;99.90
19017;DHT22;9641;51.494;6.670;2023-10-19T07:20:44;13.70;99.90
19017;DHT22;9641;51.494;6.670;2023-10-19T07:23:14;13.70;99.90
19017;DHT22;9641;51.494;6.670;2023-10-19T07:26:27;13.80;99.90
19017;DHT22;9641;51.494;6.670;2023-10-19T07:29:20;13.80;99.90
19017;DHT22;9641;51.494;6.670;2023-10-19T07:32:18;13.80;99.90
19017;DHT22;9641;51.494;6.670;2023-10-19T07:35:10;13.90;99.90
19017;DHT22;9641;51.494;6.670;2023-10-19T07:37:44;13.90;99.90
19017;DHT22;9641;51.494;6.670;2023-10-19T07:40:26;14.00;99.90
19017;DHT22;9641;51.494;6.670;2023-10-19T07:42:56;14.00;99.90
19017;DHT22;9641;51.494;6.670;2023-10-19T07:45:23;14.00;99.90
19017;DHT22;9641;51.494;6.670;2023-10-19T07:47:53;14.10;99.90
19017;DHT22;9641;51.494;6.670;2023-10-19T07:50:20;14.10;99.90
19017;DHT22;9641;51.494;6.670;2023-10-19T07:52:50;14.20;99.90
19017;DHT22;9641;51.494;6.670;2023-10-19T07:55:19;14.20;99.90
19017;DHT22;9641;51.494;6.670;2023-10-19T07:57:49;14.30;99.90
19017;DHT22;9641;51.494;6.670;2023-10-19T08:00:18;14.30;99.90
19017;DHT22;9641;51.494;6.670;2023-10-19T08:02:45;14.40;99.90
19017;DHT22;9641;51.494;6.670;2023-10-19T08:05:15;14.40;99.90
19017;DHT22;9641;51.494;6.670;2023-10-19T08:07:44;14.40;99.90
19017;DHT22;9641;51.494;6.670;2023-10-19T08:10:14;14.50;99.90
19017;DHT22;9641;51.494;6.670;2023-10-19T08:12:43;14.60;99.90
19017;DHT22;9641;51.494;6.670;2023-10-19T08:15:13;14.60;99.90
19017;DHT22;9641;51.494;6.670;2023-10-19T08:17:42;14.70;99.90
19017;DHT22;9641;51.494;6.670;2023-10-19T08:20:10;14.80;99.90
19017;DHT22;9641;51.494;6.670;2023-10-19T08:22:43;14.80;99.90
19017;DHT22;9641;51.494;6.670;2023-10-19T08:25:12;14.80;99.90
19017;DHT22;9641;51.494;6.670;2023-10-19T08:27:40;14.90;99.90
19017;DHT22;9641;51.494;6.670;2023-10-19T08:30:10;14.90;99.90
19017;DHT22;9641;51.494;6.670;2023-10-19T08:32:38;14.90;99.90
19017;DHT22;9641;51.494;6.670;2023-10-19T08:35:06;15.00;99.90
19017;DHT22;9641;51.494;6.670;2023-10-19T08:37:33;15.00;99.90
19017;DHT22;9641;51.494;6.670;2023-10-19T08:40:01;15.00;99.90
19017;DHT22;9641;51.494;6.670;2023-10-19T08:42:30;15.00;99.90
19017;DHT22;9641;51.494;6.670;2023-10-19T08:44:58;15.10;99.90
19017;DHT22;9641;51.494;6.670;2023-10-19T08:47:25;15.10;99.90
19017;DHT22;9641;51.494;6.670;2023-10-19T08:49:53;15.20;99.90
19017;DHT22;9641;51.494;6.670;2023-10-19T08:52:21;15.20;99.90
19017;DHT22;9641;51.494;6.670;2023-10-19T08:54:49;15.30;99.90
19017;DHT22;9641;51.494;6.670;2023-10-19T08:57:18;15.30;99.90
19017;DHT22;9641;51.494;6.670;2023-10-19T08:59:45;15.40;99.90
19017;DHT22;9641;51.494;6.670;2023-10-19T09:02:15;15.40;99.90
19017;DHT22;9641;51.494;6.670;2023-10-19T09:04:43;15.40;99.90
19017;DHT22;9641;51.494;6.670;2023-10-19T09:07:16;15.40;99.90
19017;DHT22;9641;51.494;6.670;2023-10-19T09:09:43;15.50;99.90
19017;DHT22;9641;51.494;6.670;2023-10-19T09:12:13;15.60;99.90
19017;DHT22;9641;51.494;6.670;2023-10-19T09:14:41;15.60;99.90
19017;DHT22;9641;51.494;6.670;2023-10-19T09:17:15;15.70;99.90
19017;DHT22;9641;51.494;6.670;2023-10-19T09:19:45;15.80;99.90
19017;DHT22;9641;51.494;6.670;2023-10-19T09:22:13;15.90;99.90
19017;DHT22;9641;51.494;6.670;2023-10-19T09:24:44;16.00;99.90
19017;DHT22;9641;51.494;6.670;2023-10-19T09:27:12;16.00;99.90
19017;DHT22;9641;51.494;6.670;2023-10-19T09:29:41;16.20;99.90
19017;DHT22;9641;51.494;6.670;2023-10-19T09:32:08;16.30;99.90
19017;DHT22;9641;51.494;6.670;2023-10-19T09:34:36;16.50;99.90
19017;DHT22;9641;51.494;6.670;2023-10-19T09:37:03;16.60;99.90
19017;DHT22;9641;51.494;6.670;2023-10-19T09:39:31;16.70;99.90
19017;DHT22;9641;51.494;6.670;2023-10-19T09:42:02;16.80;99.90
19017;DHT22;9641;51.494;6.670;2023-10-19T09:44:43;16.90;99.90
19017;DHT22;9641;51.494;6.670;2023-10-19T09:47:11;17.10;99.90
19017;DHT22;9641;51.494;6.670;2023-10-19T09:49:47;17.20;99.90
19017;DHT22;9641;51.494;6.670;2023-10-19T09:52:16;17.30;99.90
19017;DHT22;9641;51.494;6.670;2023-10-19T09:54:54;17.30;99.90
19017;DHT22;9641;51.494;6.670;2023-10-19T09:57:31;17.50;99.90
19017;DHT22;9641;51.494;6.670;2023-10-19T10:00:03;17.50;99.90
19017;DHT22;9641;51.494;6.670;2023-10-19T10:02:42;17.60;99.90
19017;DHT22;9641;51.494;6.670;2023-10-19T10:05:44;17.60;99.90
19017;DHT22;9641;51.494;6.670;2023-10-19T10:08:30;17.70;99.90
19017;DHT22;9641;51.494;6.670;2023-10-19T10:10:58;17.70;99.90
19017;DHT22;9641;51.494;6.670;2023-10-19T10:13:37;17.70;99.90
19017;DHT22;9641;51.494;6.670;2023-10-19T10:16:06;17.80;99.90
19017;DHT22;9641;51.494;6.670;2023-10-19T10:18:35;17.90;99.90
19017;DHT22;9641;51.494;6.670;2023-10-19T10:21:07;18.00;99.90
19017;DHT22;9641;51.494;6.670;2023-10-19T10:23:40;18.20;99.90
19017;DHT22;9641;51.494;6.670;2023-10-19T10:26:10;18.20;99.90
19017;DHT22;9641;51.494;6.670;2023-10-19T10:28:38;18.30;99.90
19017;DHT22;9641;51.494;6.670;2023-10-19T10:31:13;18.30;99.90
19017;DHT22;9641;51.494;6.670;2023-10-19T10:33:43;18.40;99.90
19017;DHT22;9641;51.494;6.670;2023-10-19T10:36:12;18.50;99.90
19017;DHT22;9641;51.494;6.670;2023-10-19T10:38:40;18.60;99.90
19017;DHT22;9641;51.494;6.670;2023-10-19T10:41:11;18.60;99.90
19017;DHT22;9641;51.494;6.670;2023-10-19T10:43:49;18.70;99.90
19017;DHT22;9641;51.494;6.670;2023-10-19T10:46:22;18.70;99.90
19017;DHT22;9641;51.494;6.670;2023-10-19T10:48:55;18.70;99.90
19017;DHT22;9641;51.494;6.670;2023-10-19T10:51:26;18.80;99.90
19017;DHT22;9641;51.494;6.670;2023-10-19T10:54:05;18.90;99.90
19017;DHT22;9641;51.494;6.670;2023-10-19T10:56:42;19.00;99.90
19017;DHT22;9641;51.494;6.670;2023-10-19T10:59:27;19.10;99.90
19017;DHT22;9641;51.494;6.670;2023-10-19T11:02:00;19.30;99.90
19017;DHT22;9641;51.494;6.670;2023-10-19T11:04:27;19.40;99.90
19017;DHT22;9641;51.494;6.670;2023-10-19T11:06:55;19.50;99.90
19017;DHT22;9641;51.494;6.670;2023-10-19T11:09:22;19.70;97.50
19017;DHT22;9641;51.494;6.670;2023-10-19T11:11:55;19.70;23.30
19017;DHT22;9641;51.494;6.670;2023-10-19T11:14:24;19.60;20.90
19017;DHT22;9641;51.494;6.670;2023-10-19T11:16:51;19.50;1.00
19017;DHT22;9641;51.494;6.670;2023-10-19T11:19:43;19.50;66.50
19017;DHT22;9641;51.494;6.670;2023-10-19T11:22:19;19.70;84.50
19017;DHT22;9641;51.494;6.670;2023-10-19T11:24:52;19.90;1.00
19017;DHT22;9641;51.494;6.670;2023-10-19T11:27:24;20.00;1.00
19017;DHT22;9641;51.494;6.670;2023-10-19T11:29:56;20.20;1.00
19017;DHT22;9641;51.494;6.670;2023-10-19T11:35:56;20.60;1.00
19017;DHT22;9641;51.494;6.670;2023-10-19T11:38:56;20.90;1.00
19017;DHT22;9641;51.494;6.670;2023-10-19T11:41:39;21.10;1.00
19017;DHT22;9641;51.494;6.670;2023-10-19T11:48:30;20.90;1.00
19017;DHT22;9641;51.494;6.670;2023-10-19T11:51:10;20.50;1.00
19017;DHT22;9641;51.494;6.670;2023-10-19T11:53:45;20.20;99.90
19017;DHT22;9641;51.494;6.670;2023-10-19T11:56:13;20.10;1.00
19017;DHT22;9641;51.494;6.670;2023-10-19T11:58:46;19.90;1.00
19017;DHT22;9641;51.494;6.670;2023-10-19T12:01:28;19.80;1.00
19017;DHT22;9641;51.494;6.670;2023-10-19T12:04:09;19.70;1.00
19017;DHT22;9641;51.494;6.670;2023-10-19T12:06:40;19.60;1.00
19017;DHT22;9641;51.494;6.670;2023-10-19T12:09:08;19.60;1.00
19017;DHT22;9641;51.494;6.670;2023-10-19T12:11:43;19.40;99.90
19017;DHT22;9641;51.494;6.670;2023-10-19T12:14:11;19.30;1.00
19017;DHT22;9641;51.494;6.670;2023-10-19T12:16:40;19.20;1.00
19017;DHT22;9641;51.494;6.670;2023-10-19T12:19:08;19.20;1.00
19017;DHT22;9641;51.494;6.670;2023-10-19T12:21:35;19.20;1.00
19017;DHT22;9641;51.494;6.670;2023-10-19T12:53:41;18.40;1.00
19017;DHT22;9641;51.494;6.670;2023-10-19T13:03:48;18.40;1.00
19017;DHT22;9641;51.494;6.670;2023-10-19T13:06:48;18.40;1.00
19017;DHT22;9641;51.494;6.670;2023-10-19T13:09:43;18.30;28.60
19017;DHT22;9641;51.494;6.670;2023-10-19T13:12:14;18.20;70.20
19017;DHT22;9641;51.494;6.670;2023-10-19T13:15:06;18.10;99.90
19017;DHT22;9641;51.494;6.670;2023-10-19T13:17:57;18.10;99.90
19017;DHT22;9641;51.494;6.670;2023-10-19T13:20:26;18.00;99.90
19017;DHT22;9641;51.494;6.670;2023-10-19T13:23:07;18.00;99.90
19017;DHT22;9641;51.494;6.670;2023-10-19T13:26:12;18.00;99.90
19017;DHT22;9641;51.494;6.670;2023-10-19T13:29:04;18.00;99.90
19017;DHT22;9641;51.494;6.670;2023-10-19T13:39:59;17.90;99.90
19017;DHT22;9641;51.494;6.670;2023-10-19T13:43:11;17.90;99.90
19017;DHT22;9641;51.494;6.670;2023-10-19T13:45:45;17.90;99.90
19017;DHT22;9641;51.494;6.670;2023-10-19T13:48:13;17.80;99.90
19017;DHT22;9641;51.494;6.670;2023-10-19T13:51:02;17.80;99.90
19017;DHT22;9641;51.494;6.670;2023-10-19T13:53:38;17.80;99.90
19017;DHT22;9641;51.494;6.670;2023-10-19T13:56:13;17.80;99.90
19017;DHT22;9641;51.494;6.670;2023-10-19T13:58:42;17.80;99.90
19017;DHT22;9641;51.494;6.670;2023-10-19T14:01:12;17.80;99.90
19017;DHT22;9641;51.494;6.670;2023-10-19T14:03:39;17.80;99.90
19017;DHT22;9641;51.494;6.670;2023-10-19T14:06:11;17.80;99.90
19017;DHT22;9641;51.494;6.670;2023-10-19T14:08:38;17.80;99.90
19017;DHT22;9641;51.494;6.670;2023-10-19T14:11:06;17.80;99.90
19017;DHT22;9641;51.494;6.670;2023-10-19T14:13:33;17.80;99.90
19017;DHT22;9641;51.494;6.670;2023-10-19T14:16:07;17.80;99.90
19017;DHT22;9641;51.494;6.670;2023-10-19T14:18:34;17.80;99.90
19017;DHT22;9641;51.494;6.670;2023-10-19T14:21:10;17.70;99.90
19017;DHT22;9641;51.494;6.670;2023-10-19T14:23:37;17.70;99.90
19017;DHT22;9641;51.494;6.670;2023-10-19T14:26:06;17.70;99.90
19017;DHT22;9641;51.494;6.670;2023-10-19T14:28:34;17.70;99.90
19017;DHT22;9641;51.494;6.670;2023-10-19T14:31:02;17.70;99.90
19017;DHT22;9641;51.494;6.670;2023-10-19T14:33:31;17.70;99.90
19017;DHT22;9641;51.494;6.670;2023-10-19T14:36:00;17.60;99.90
19017;DHT22;9641;51.494;6.670;2023-10-19T14:38:28;17.60;99.90
19017;DHT22;9641;51.494;6.670;2023-10-19T14:40:59;17.60;99.90
19017;DHT22;9641;51.494;6.670;2023-10-19T14:43:29;17.60;99.90
19017;DHT22;9641;51.494;6.670;2023-10-19T14:45:56;17.50;99.90
19017;DHT22;9641;51.494;6.670;2023-10-19T14:48:23;17.50;99.90
19017;DHT22;9641;51.494;6.670;2023-10-19T14:50:53;17.50;99.90
19017;DHT22;9641;51.494;6.670;2023-10-19T14:53:23;17.40;99.90
19017;DHT22;9641;51.494;6.670;2023-10-19T14:55:50;17.40;99.90
19017;DHT22;9641;51.494;6.670;2023-10-19T14:58:18;17.30;99.90
19017;DHT22;9641;51.494;6.670;2023-10-19T15:00:48;17.30;99.90
19017;DHT22;9641;51.494;6.670;2023-10-19T15:03:21;17.30;99.90
19017;DHT22;9641;51.494;6.670;2023-10-19T15:05:52;17.30;99.90
19017;DHT22;9641;51.494;6.670;2023-10-19T15:08:21;17.30;99.90
19017;DHT22;9641;51.494;6.670;2023-10-19T15:10:52;17.20;99.90
19017;DHT22;9641;51.494;6.670;2023-10-19T15:13:21;17.20;99.90
19017;DHT22;9641;51.494;6.670;2023-10-19T15:15:48;17.20;99.90
19017;DHT22;9641;51.494;6.670;2023-10-19T15:18:16;17.20;99.90
19017;DHT22;9641;51.494;6.670;2023-10-19T15:20:44;17.20;99.90
19017;DHT22;9641;51.494;6.670;2023-10-19T15:23:16;17.20;99.90
19017;DHT22;9641;51.494;6.670;2023-10-19T15:25:44;17.20;99.90
19017;DHT22;9641;51.494;6.670;2023-10-19T15:28:14;17.20;99.90
19017;DHT22;9641;51.494;6.670;2023-10-19T15:30:41;17.20;99.90
19017;DHT22;9641;51.494;6.670;2023-10-19T15:33:09;17.20;99.90
19017;DHT22;9641;51.494;6.670;2023-10-19T15:35:38;17.20;99.90
19017;DHT22;9641;51.494;6.670;2023-10-19T15:38:07;17.20;99.90
19017;DHT22;9641;51.494;6.670;2023-10-19T15:40:43;17.20;99.90
19017;DHT22;9641;51.494;6.670;2023-10-19T15:43:20;17.20;99.90
19017;DHT22;9641;51.494;6.670;2023-10-19T15:45:57;17.20;99.90
19017;DHT22;9641;51.494;6.670;2023-10-19T15:48:28;17.20;99.90
19017;DHT22;9641;51.494;6.670;2023-10-19T15:51:01;17.20;99.90
19017;DHT22;9641;51.494;6.670;2023-10-19T15:53:41;17.30;99.90
19017;DHT22;9641;51.494;6.670;2023-10-19T15:56:10;17.30;99.90
19017;DHT22;9641;51.494;6.670;2023-10-19T15:58:44;17.30;99.90
19017;DHT22;9641;51.494;6.670;2023-10-19T16:01:18;17.30;99.90
19017;DHT22;9641;51.494;6.670;2023-10-19T16:03:45;17.30;99.90
19017;DHT22;9641;51.494;6.670;2023-10-19T16:06:15;17.30;99.90
19017;DHT22;9641;51.494;6.670;2023-10-19T16:08:43;17.30;99.90
19017;DHT22;9641;51.494;6.670;2023-10-19T16:11:11;17.20;99.90
19017;DHT22;9641;51.494;6.670;2023-10-19T16:13:43;17.20;99.90
19017;DHT22;9641;51.494;6.670;2023-10-19T16:16:15;17.20;99.90
19017;DHT22;9641;51.494;6.670;2023-10-19T16:18:43;17.20;99.90
19017;DHT22;9641;51.494;6.670;2023-10-19T16:21:13;17.10;99.90
19017;DHT22;9641;51.494;6.670;2023-10-19T16:23:42;17.10;99.90
19017;DHT22;9641;51.494;6.670;2023-10-19T16:26:10;17.00;99.90
19017;DHT22;9641;51.494;6.670;2023-10-19T16:28:37;17.00;99.90
19017;DHT22;9641;51.494;6.670;2023-10-19T16:31:04;16.80;99.90
19017;DHT22;9641;51.494;6.670;2023-10-19T16:33:37;16.80;99.90
19017;DHT22;9641;51.494;6.670;2023-10-19T16:36:06;16.70;99.90
19017;DHT22;9641;51.494;6.670;2023-10-19T16:38:34;16.70;99.90
19017;DHT22;9641;51.494;6.670;2023-10-19T16:41:02;16.60;99.90
19017;DHT22;9641;51.494;6.670;2023-10-19T16:43:31;16.60;99.90
19017;DHT22;9641;51.494;6.670;2023-10-19T16:45:59;16.60;99.90
19017;DHT22;9641;51.494;6.670;2023-10-19T16:49:14;16.50;99.90
19017;DHT22;9641;51.494;6.670;2023-10-19T16:51:52;16.50;99.90
19017;DHT22;9641;51.494;6.670;2023-10-19T16:54:35;16.40;99.90
19017;DHT22;9641;51.494;6.670;2023-10-19T16:57:02;16.40;99.90
19017;DHT22;9641;51.494;6.670;2023-10-19T16:59:30;16.40;99.90
19017;DHT22;9641;51.494;6.670;2023-10-19T17:01:57;16.30;99.90
19017;DHT22;9641;51.494;6.670;2023-10-19T17:04:24;16.30;99.90
19017;DHT22;9641;51.494;6.670;2023-10-19T17:06:52;16.20;99.90